sensor_id;sensor_type;location;lat;lon;timestamp;temperature;humidity
60860;DHT22;46694;54.382;9.708;2023-03-14T00:02:44;10.80;99.90
60860;DHT22;46694;54.382;9.708;2023-03-14T00:05:24;10.80;99.90
60860;DHT22;46694;54.382;9.708;2023-03-14T00:08:04;10.80;99.90
60860;DHT22;46694;54.382;9.708;2023-03-14T00:10:43;10.80;99.90
60860;DHT22;46694;54.382;9.708;2023-03-14T00:13:24;10.90;99.90
60860;DHT22;46694;54.382;9.708;2023-03-14T00:16:09;10.90;99.90
60860;DHT22;46694;54.382;9.708;2023-03-14T00:18:50;10.90;99.90
60860;DHT22;46694;54.382;9.708;2023-03-14T00:21:29;10.80;99.90
60860;DHT22;46694;54.382;9.708;2023-03-14T00:24:09;10.80;99.90
60860;DHT22;46694;54.382;9.708;2023-03-14T00:26:48;10.90;99.90
60860;DHT22;46694;54.382;9.708;2023-03-14T00:29:28;10.90;99.90
60860;DHT22;46694;54.382;9.708;2023-03-14T00:32:07;10.90;99.90
60860;DHT22;46694;54.382;9.708;2023-03-14T00:34:47;10.90;99.90
60860;DHT22;46694;54.382;9.708;2023-03-14T00:37:27;10.90;99.90
60860;DHT22;46694;54.382;9.708;2023-03-14T00:40:07;10.90;99.90
60860;DHT22;46694;54.382;9.708;2023-03-14T00:42:47;10.90;99.90
60860;DHT22;46694;54.382;9.708;2023-03-14T00:45:27;10.90;99.90
60860;DHT22;46694;54.382;9.708;2023-03-14T00:48:07;10.90;99.90
60860;DHT22;46694;54.382;9.708;2023-03-14T00:50:47;10.90;99.90
60860;DHT22;46694;54.382;9.708;2023-03-14T00:53:26;10.90;99.90
60860;DHT22;46694;54.382;9.708;2023-03-14T00:56:09;11.00;99.90
60860;DHT22;46694;54.382;9.708;2023-03-14T00:58:53;11.00;99.90
60860;DHT22;46694;54.382;9.708;2023-03-14T01:01:35;11.00;99.90
60860;DHT22;46694;54.382;9.708;2023-03-14T01:04:14;11.00;99.90
60860;DHT22;46694;54.382;9.708;2023-03-14T01:06:54;11.10;99.90
60860;DHT22;46694;54.382;9.708;2023-03-14T01:09:33;11.10;99.90
60860;DHT22;46694;54.382;9.708;2023-03-14T01:12:13;11.10;99.90
60860;DHT22;46694;54.382;9.708;2023-03-14T01:14:52;11.10;99.90
60860;DHT22;46694;54.382;9.708;2023-03-14T01:17:32;11.10;99.90
60860;DHT22;46694;54.382;9.708;2023-03-14T01:20:13;11.10;99.90
60860;DHT22;46694;54.382;9.708;2023-03-14T01:22:54;11.10;99.90
60860;DHT22;46694;54.382;9.708;2023-03-14T01:25:33;11.10;99.90
60860;DHT22;46694;54.382;9.708;2023-03-14T01:28:13;11.10;99.90
60860;DHT22;46694;54.382;9.708;2023-03-14T01:30:53;11.20;99.90
60860;DHT22;46694;54.382;9.708;2023-03-14T01:33:32;11.20;99.90
60860;DHT22;46694;54.382;9.708;2023-03-14T01:36:13;11.20;99.90
60860;DHT22;46694;54.382;9.708;2023-03-14T01:38:52;11.10;99.90
60860;DHT22;46694;54.382;9.708;2023-03-14T01:41:32;11.10;99.90
60860;DHT22;46694;54.382;9.708;2023-03-14T01:44:12;11.10;99.90
60860;DHT22;46694;54.382;9.708;2023-03-14T01:46:52;11.10;99.90
60860;DHT22;46694;54.382;9.708;2023-03-14T01:49:34;11.10;99.90
60860;DHT22;46694;54.382;9.708;2023-03-14T01:52:21;11.10;99.90
60860;DHT22;46694;54.382;9.708;2023-03-14T01:55:09;11.10;99.90
60860;DHT22;46694;54.382;9.708;2023-03-14T01:57:55;11.00;99.90
60860;DHT22;46694;54.382;9.708;2023-03-14T02:00:38;11.00;99.90
60860;DHT22;46694;54.382;9.708;2023-03-14T02:03:18;11.00;99.90
60860;DHT22;46694;54.382;9.708;2023-03-14T02:06:04;10.90;99.90
60860;DHT22;46694;54.382;9.708;2023-03-14T02:08:45;10.90;99.90
60860;DHT22;46694;54.382;9.708;2023-03-14T02:11:28;10.90;99.90
60860;DHT22;46694;54.382;9.708;2023-03-14T02:14:17;10.80;99.90
60860;DHT22;46694;54.382;9.708;2023-03-14T02:17:03;10.80;99.90
60860;DHT22;46694;54.382;9.708;2023-03-14T02:22:51;10.80;99.90
60860;DHT22;46694;54.382;9.708;2023-03-14T02:28:49;10.70;99.90
60860;DHT22;46694;54.382;9.708;2023-03-14T02:31:29;10.70;99.90
60860;DHT22;46694;54.382;9.708;2023-03-14T02:34:09;10.70;99.90
60860;DHT22;46694;54.382;9.708;2023-03-14T02:36:49;10.60;99.90
60860;DHT22;46694;54.382;9.708;2023-03-14T02:39:37;10.60;99.90
60860;DHT22;46694;54.382;9.708;2023-03-14T02:42:18;10.60;99.90
60860;DHT22;46694;54.382;9.708;2023-03-14T02:48:06;10.50;99.90
60860;DHT22;46694;54.382;9.708;2023-03-14T02:50:50;10.50;99.90
60860;DHT22;46694;54.382;9.708;2023-03-14T02:53:35;10.50;99.90
60860;DHT22;46694;54.382;9.708;2023-03-14T02:56:15;10.50;99.90
60860;DHT22;46694;54.382;9.708;2023-03-14T02:58:55;10.50;99.90
60860;DHT22;46694;54.382;9.708;2023-03-14T03:01:36;10.50;99.90
60860;DHT22;46694;54.382;9.708;2023-03-14T03:04:16;10.50;99.90
60860;DHT22;46694;54.382;9.708;2023-03-14T03:06:56;10.50;99.90
60860;DHT22;46694;54.382;9.708;2023-03-14T03:09:35;10.50;99.90
60860;DHT22;46694;54.382;9.708;2023-03-14T03:12:15;10.50;99.90
60860;DHT22;46694;54.382;9.708;2023-03-14T03:14:54;10.50;99.90
60860;DHT22;46694;54.382;9.708;2023-03-14T03:17:34;10.60;99.90
60860;DHT22;46694;54.382;9.708;2023-03-14T03:20:13;10.60;99.90
60860;DHT22;46694;54.382;9.708;2023-03-14T03:22:53;10.60;99.90
60860;DHT22;46694;54.382;9.708;2023-03-14T03:25:32;10.70;99.90
60860;DHT22;46694;54.382;9.708;2023-03-14T03:28:13;10.70;99.90
60860;DHT22;46694;54.382;9.708;2023-03-14T03:30:52;10.70;99.90
60860;DHT22;46694;54.382;9.708;2023-03-14T03:33:31;10.70;99.90
60860;DHT22;46694;54.382;9.708;2023-03-14T03:36:12;10.70;99.90
60860;DHT22;46694;54.382;9.708;2023-03-14T03:38:51;10.80;99.90
60860;DHT22;46694;54.382;9.708;2023-03-14T03:41:31;10.80;99.90
60860;DHT22;46694;54.382;9.708;2023-03-14T03:44:11;10.80;99.90
60860;DHT22;46694;54.382;9.708;2023-03-14T03:46:51;10.80;99.90
60860;DHT22;46694;54.382;9.708;2023-03-14T03:49:31;10.80;99.90
60860;DHT22;46694;54.382;9.708;2023-03-14T03:52:11;10.80;99.90
60860;DHT22;46694;54.382;9.708;2023-03-14T03:54:51;10.80;99.90
60860;DHT22;46694;54.382;9.708;2023-03-14T03:57:30;10.80;99.90
60860;DHT22;46694;54.382;9.708;2023-03-14T04:00:11;10.80;99.90
60860;DHT22;46694;54.382;9.708;2023-03-14T04:02:51;10.80;99.90
60860;DHT22;46694;54.382;9.708;2023-03-14T04:05:31;10.80;99.90
60860;DHT22;46694;54.382;9.708;2023-03-14T04:08:10;10.80;99.90
60860;DHT22;46694;54.382;9.708;2023-03-14T04:10:55;10.80;99.90
60860;DHT22;46694;54.382;9.708;2023-03-14T04:13:35;10.80;99.90
60860;DHT22;46694;54.382;9.708;2023-03-14T04:16:19;10.80;99.90
60860;DHT22;46694;54.382;9.708;2023-03-14T04:19:03;10.80;99.90
60860;DHT22;46694;54.382;9.708;2023-03-14T04:21:43;10.80;99.90
60860;DHT22;46694;54.382;9.708;2023-03-14T04:24:26;10.70;99.90
60860;DHT22;46694;54.382;9.708;2023-03-14T04:27:05;10.70;99.90
60860;DHT22;46694;54.382;9.708;2023-03-14T04:29:45;10.70;99.90
60860;DHT22;46694;54.382;9.708;2023-03-14T04:32:24;10.60;99.90
60860;DHT22;46694;54.382;9.708;2023-03-14T04:35:04;10.60;99.90
60860;DHT22;46694;54.382;9.708;2023-03-14T04:37:44;10.60;99.90
60860;DHT22;46694;54.382;9.708;2023-03-14T04:40:23;10.60;99.90
60860;DHT22;46694;54.382;9.708;2023-03-14T04:43:03;10.60;99.90
60860;DHT22;46694;54.382;9.708;2023-03-14T04:45:43;10.50;99.90
60860;DHT22;46694;54.382;9.708;2023-03-14T04:48:23;10.50;99.90
60860;DHT22;46694;54.382;9.708;2023-03-14T04:51:04;10.50;99.90
60860;DHT22;46694;54.382;9.708;2023-03-14T04:53:44;10.50;99.90
60860;DHT22;46694;54.382;9.708;2023-03-14T04:56:23;10.50;99.90
60860;DHT22;46694;54.382;9.708;2023-03-14T04:59:03;10.50;99.90
60860;DHT22;46694;54.382;9.708;2023-03-14T05:01:43;10.40;99.90
60860;DHT22;46694;54.382;9.708;2023-03-14T05:04:23;10.40;99.90
60860;DHT22;46694;54.382;9.708;2023-03-14T05:07:02;10.40;99.90
60860;DHT22;46694;54.382;9.708;2023-03-14T05:09:42;10.30;99.90
60860;DHT22;46694;54.382;9.708;2023-03-14T05:12:21;10.30;99.90
60860;DHT22;46694;54.382;9.708;2023-03-14T05:15:01;10.30;99.90
60860;DHT22;46694;54.382;9.708;2023-03-14T05:17:40;10.30;99.90
60860;DHT22;46694;54.382;9.708;2023-03-14T05:20:20;10.20;99.90
60860;DHT22;46694;54.382;9.708;2023-03-14T05:23:00;10.20;99.90
60860;DHT22;46694;54.382;9.708;2023-03-14T05:25:42;10.20;99.90
60860;DHT22;46694;54.382;9.708;2023-03-14T05:28:21;10.20;99.90
60860;DHT22;46694;54.382;9.708;2023-03-14T05:31:05;10.30;99.90
60860;DHT22;46694;54.382;9.708;2023-03-14T05:33:45;10.30;99.90
60860;DHT22;46694;54.382;9.708;2023-03-14T05:36:25;10.30;99.90
60860;DHT22;46694;54.382;9.708;2023-03-14T05:39:04;10.30;99.90
60860;DHT22;46694;54.382;9.708;2023-03-14T05:41:44;10.30;99.90
60860;DHT22;46694;54.382;9.708;2023-03-14T05:44:24;10.30;99.90
60860;DHT22;46694;54.382;9.708;2023-03-14T05:47:03;10.30;99.90
60860;DHT22;46694;54.382;9.708;2023-03-14T05:49:43;10.30;99.90
60860;DHT22;46694;54.382;9.708;2023-03-14T05:52:22;10.30;99.90
60860;DHT22;46694;54.382;9.708;2023-03-14T05:55:03;10.30;99.90
60860;DHT22;46694;54.382;9.708;2023-03-14T05:57:42;10.30;99.90
60860;DHT22;46694;54.382;9.708;2023-03-14T06:00:22;10.30;99.90
60860;DHT22;46694;54.382;9.708;2023-03-14T06:03:02;10.30;99.90
60860;DHT22;46694;54.382;9.708;2023-03-14T06:05:41;10.30;99.90
60860;DHT22;46694;54.382;9.708;2023-03-14T06:08:20;10.20;99.90
60860;DHT22;46694;54.382;9.708;2023-03-14T06:11:02;10.20;99.90
60860;DHT22;46694;54.382;9.708;2023-03-14T06:13:42;10.20;99.90
60860;DHT22;46694;54.382;9.708;2023-03-14T06:16:22;10.20;99.90
60860;DHT22;46694;54.382;9.708;2023-03-14T06:19:01;10.10;99.90
60860;DHT22;46694;54.382;9.708;2023-03-14T06:21:41;10.10;99.90
60860;DHT22;46694;54.382;9.708;2023-03-14T06:24:20;10.10;99.90
60860;DHT22;46694;54.382;9.708;2023-03-14T06:27:00;10.10;99.90
60860;DHT22;46694;54.382;9.708;2023-03-14T06:29:41;10.10;99.90
60860;DHT22;46694;54.382;9.708;2023-03-14T06:32:27;10.10;99.90
60860;DHT22;46694;54.382;9.708;2023-03-14T06:35:07;10.10;99.90
60860;DHT22;46694;54.382;9.708;2023-03-14T06:37:47;10.10;99.90
60860;DHT22;46694;54.382;9.708;2023-03-14T06:40:27;10.10;99.90
60860;DHT22;46694;54.382;9.708;2023-03-14T06:43:06;10.10;99.90
60860;DHT22;46694;54.382;9.708;2023-03-14T06:45:46;10.10;99.90
60860;DHT22;46694;54.382;9.708;2023-03-14T06:48:25;10.00;99.90
60860;DHT22;46694;54.382;9.708;2023-03-14T06:51:05;10.00;99.90
60860;DHT22;46694;54.382;9.708;2023-03-14T06:53:45;10.00;99.90
60860;DHT22;46694;54.382;9.708;2023-03-14T06:56:24;10.00;99.90
60860;DHT22;46694;54.382;9.708;2023-03-14T06:59:04;10.00;99.90
60860;DHT22;46694;54.382;9.708;2023-03-14T07:01:44;10.00;99.90
60860;DHT22;46694;54.382;9.708;2023-03-14T07:04:23;10.00;99.90
60860;DHT22;46694;54.382;9.708;2023-03-14T07:07:03;10.00;99.90
60860;DHT22;46694;54.382;9.708;2023-03-14T07:09:42;10.00;99.90
60860;DHT22;46694;54.382;9.708;2023-03-14T07:12:22;9.90;99.90
60860;DHT22;46694;54.382;9.708;2023-03-14T07:15:02;10.00;99.90
60860;DHT22;46694;54.382;9.708;2023-03-14T07:17:42;10.00;99.90
60860;DHT22;46694;54.382;9.708;2023-03-14T07:20:21;9.90;99.90
60860;DHT22;46694;54.382;9.708;2023-03-14T07:23:02;9.90;99.90
60860;DHT22;46694;54.382;9.708;2023-03-14T07:25:42;10.00;99.90
60860;DHT22;46694;54.382;9.708;2023-03-14T07:28:27;9.90;99.90
60860;DHT22;46694;54.382;9.708;2023-03-14T07:31:08;9.90;99.90
60860;DHT22;46694;54.382;9.708;2023-03-14T07:33:47;9.90;99.90
60860;DHT22;46694;54.382;9.708;2023-03-14T07:36:27;9.90;99.90
60860;DHT22;46694;54.382;9.708;2023-03-14T07:39:06;9.90;99.90
60860;DHT22;46694;54.382;9.708;2023-03-14T07:41:46;9.90;99.90
60860;DHT22;46694;54.382;9.708;2023-03-14T07:44:26;9.90;99.90
60860;DHT22;46694;54.382;9.708;2023-03-14T07:47:05;9.90;99.90
60860;DHT22;46694;54.382;9.708;2023-03-14T07:49:45;10.00;99.90
60860;DHT22;46694;54.382;9.708;2023-03-14T07:52:24;10.00;99.90
60860;DHT22;46694;54.382;9.708;2023-03-14T07:55:04;9.90;99.90
60860;DHT22;46694;54.382;9.708;2023-03-14T07:57:44;10.00;99.90
60860;DHT22;46694;54.382;9.708;2023-03-14T08:00:24;9.90;99.90
60860;DHT22;46694;54.382;9.708;2023-03-14T08:03:03;9.90;99.90
60860;DHT22;46694;54.382;9.708;2023-03-14T08:05:43;9.90;99.90
60860;DHT22;46694;54.382;9.708;2023-03-14T08:08:23;9.90;99.90
60860;DHT22;46694;54.382;9.708;2023-03-14T08:11:04;10.00;99.90
60860;DHT22;46694;54.382;9.708;2023-03-14T08:13:47;10.00;99.90
60860;DHT22;46694;54.382;9.708;2023-03-14T08:16:29;10.00;99.90
60860;DHT22;46694;54.382;9.708;2023-03-14T08:19:08;10.00;99.90
60860;DHT22;46694;54.382;9.708;2023-03-14T08:21:48;9.80;99.90
60860;DHT22;46694;54.382;9.708;2023-03-14T08:24:27;9.60;99.90
60860;DHT22;46694;54.382;9.708;2023-03-14T08:27:07;9.30;99.90
60860;DHT22;46694;54.382;9.708;2023-03-14T08:29:46;9.10;99.90
60860;DHT22;46694;54.382;9.708;2023-03-14T08:32:26;8.80;99.90
60860;DHT22;46694;54.382;9.708;2023-03-14T08:35:06;8.60;99.90
60860;DHT22;46694;54.382;9.708;2023-03-14T08:37:46;8.40;99.90
60860;DHT22;46694;54.382;9.708;2023-03-14T08:40:26;8.20;99.90
60860;DHT22;46694;54.382;9.708;2023-03-14T08:43:05;8.10;99.90
60860;DHT22;46694;54.382;9.708;2023-03-14T08:45:45;7.90;99.90
60860;DHT22;46694;54.382;9.708;2023-03-14T08:48:24;7.80;99.90
60860;DHT22;46694;54.382;9.708;2023-03-14T08:51:09;7.60;99.90
60860;DHT22;46694;54.382;9.708;2023-03-14T08:53:50;7.50;99.90
60860;DHT22;46694;54.382;9.708;2023-03-14T08:56:30;7.40;99.90
60860;DHT22;46694;54.382;9.708;2023-03-14T08:59:09;7.30;99.90
60860;DHT22;46694;54.382;9.708;2023-03-14T09:01:50;7.20;99.90
60860;DHT22;46694;54.382;9.708;2023-03-14T09:04:30;7.20;99.90
60860;DHT22;46694;54.382;9.708;2023-03-14T09:07:10;7.10;99.90
60860;DHT22;46694;54.382;9.708;2023-03-14T09:09:50;7.00;99.90
60860;DHT22;46694;54.382;9.708;2023-03-14T09:12:30;6.90;99.90
60860;DHT22;46694;54.382;9.708;2023-03-14T09:15:09;6.80;99.90
60860;DHT22;46694;54.382;9.708;2023-03-14T09:17:49;6.70;99.90
60860;DHT22;46694;54.382;9.708;2023-03-14T09:20:29;6.60;99.90
60860;DHT22;46694;54.382;9.708;2023-03-14T09:23:09;6.50;99.90
60860;DHT22;46694;54.382;9.708;2023-03-14T09:25:48;6.50;99.90
60860;DHT22;46694;54.382;9.708;2023-03-14T09:28:28;6.50;99.90
60860;DHT22;46694;54.382;9.708;2023-03-14T09:31:09;6.50;99.90
60860;DHT22;46694;54.382;9.708;2023-03-14T09:33:49;6.40;99.90
60860;DHT22;46694;54.382;9.708;2023-03-14T09:36:30;6.40;99.90
60860;DHT22;46694;54.382;9.708;2023-03-14T09:39:10;6.30;99.90
60860;DHT22;46694;54.382;9.708;2023-03-14T09:41:51;6.30;99.90
60860;DHT22;46694;54.382;9.708;2023-03-14T09:44:37;6.30;99.90
60860;DHT22;46694;54.382;9.708;2023-03-14T09:47:19;6.30;99.90
60860;DHT22;46694;54.382;9.708;2023-03-14T09:50:00;6.20;99.90
60860;DHT22;46694;54.382;9.708;2023-03-14T09:52:42;6.10;99.90
60860;DHT22;46694;54.382;9.708;2023-03-14T09:55:25;6.10;99.90
60860;DHT22;46694;54.382;9.708;2023-03-14T09:58:15;6.20;99.90
60860;DHT22;46694;54.382;9.708;2023-03-14T10:00:58;6.20;99.90
60860;DHT22;46694;54.382;9.708;2023-03-14T10:03:38;6.30;99.90
60860;DHT22;46694;54.382;9.708;2023-03-14T10:06:17;6.30;99.90
60860;DHT22;46694;54.382;9.708;2023-03-14T10:08:57;6.30;99.90
60860;DHT22;46694;54.382;9.708;2023-03-14T10:11:39;6.30;99.90
60860;DHT22;46694;54.382;9.708;2023-03-14T10:14:33;6.40;99.90
60860;DHT22;46694;54.382;9.708;2023-03-14T10:17:14;6.40;99.90
60860;DHT22;46694;54.382;9.708;2023-03-14T10:19:57;6.50;99.90
60860;DHT22;46694;54.382;9.708;2023-03-14T10:22:38;6.50;99.90
60860;DHT22;46694;54.382;9.708;2023-03-14T10:25:29;6.60;99.90
60860;DHT22;46694;54.382;9.708;2023-03-14T10:31:07;6.80;99.90
60860;DHT22;46694;54.382;9.708;2023-03-14T10:34:05;6.80;99.90
60860;DHT22;46694;54.382;9.708;2023-03-14T10:36:46;6.90;99.90
60860;DHT22;46694;54.382;9.708;2023-03-14T10:42:28;7.10;99.90
60860;DHT22;46694;54.382;9.708;2023-03-14T10:48:46;7.30;99.90
60860;DHT22;46694;54.382;9.708;2023-03-14T10:51:29;7.50;99.90
60860;DHT22;46694;54.382;9.708;2023-03-14T10:54:15;7.60;99.90
60860;DHT22;46694;54.382;9.708;2023-03-14T10:57:00;7.60;99.90
60860;DHT22;46694;54.382;9.708;2023-03-14T10:59:42;7.60;99.90
60860;DHT22;46694;54.382;9.708;2023-03-14T11:05:43;7.80;99.90
60860;DHT22;46694;54.382;9.708;2023-03-14T11:11:26;8.00;99.90
60860;DHT22;46694;54.382;9.708;2023-03-14T11:14:26;8.20;99.90
60860;DHT22;46694;54.382;9.708;2023-03-14T11:17:30;8.30;99.90
60860;DHT22;46694;54.382;9.708;2023-03-14T11:23:27;8.50;99.90
60860;DHT22;46694;54.382;9.708;2023-03-14T11:38:49;8.30;99.90
60860;DHT22;46694;54.382;9.708;2023-03-14T11:41:37;8.30;99.90
60860;DHT22;46694;54.382;9.708;2023-03-14T11:44:23;8.20;99.90
60860;DHT22;46694;54.382;9.708;2023-03-14T11:47:20;8.00;99.90
60860;DHT22;46694;54.382;9.708;2023-03-14T11:50:24;7.90;99.90
60860;DHT22;46694;54.382;9.708;2023-03-14T11:53:24;7.90;99.90
60860;DHT22;46694;54.382;9.708;2023-03-14T11:56:37;7.90;99.90
60860;DHT22;46694;54.382;9.708;2023-03-14T12:00:02;7.90;99.90
60860;DHT22;46694;54.382;9.708;2023-03-14T12:02:51;7.90;99.90
60860;DHT22;46694;54.382;9.708;2023-03-14T12:11:56;7.60;99.90
60860;DHT22;46694;54.382;9.708;2023-03-14T12:14:37;7.50;99.90
60860;DHT22;46694;54.382;9.708;2023-03-14T12:17:38;7.50;99.90
60860;DHT22;46694;54.382;9.708;2023-03-14T12:20:21;7.60;99.90
60860;DHT22;46694;54.382;9.708;2023-03-14T12:23:04;7.70;99.90
60860;DHT22;46694;54.382;9.708;2023-03-14T12:25:44;7.80;99.90
60860;DHT22;46694;54.382;9.708;2023-03-14T12:28:31;7.90;99.90
60860;DHT22;46694;54.382;9.708;2023-03-14T12:42:58;8.00;99.90
60860;DHT22;46694;54.382;9.708;2023-03-14T12:51:42;7.90;99.90
60860;DHT22;46694;54.382;9.708;2023-03-14T12:57:42;7.90;99.90
60860;DHT22;46694;54.382;9.708;2023-03-14T13:00:35;8.10;99.90
60860;DHT22;46694;54.382;9.708;2023-03-14T13:03:20;8.00;99.90
60860;DHT22;46694;54.382;9.708;2023-03-14T13:06:04;8.00;99.90
60860;DHT22;46694;54.382;9.708;2023-03-14T13:08:45;8.00;99.90
60860;DHT22;46694;54.382;9.708;2023-03-14T13:11:26;8.00;99.90
60860;DHT22;46694;54.382;9.708;2023-03-14T13:14:09;8.10;99.90
60860;DHT22;46694;54.382;9.708;2023-03-14T13:16:49;8.20;99.90
60860;DHT22;46694;54.382;9.708;2023-03-14T13:19:30;8.20;99.90
60860;DHT22;46694;54.382;9.708;2023-03-14T13:22:38;8.00;99.90
60860;DHT22;46694;54.382;9.708;2023-03-14T13:25:18;7.90;99.90
60860;DHT22;46694;54.382;9.708;2023-03-14T13:28:01;7.70;99.90
60860;DHT22;46694;54.382;9.708;2023-03-14T13:30:44;7.70;99.90
60860;DHT22;46694;54.382;9.708;2023-03-14T13:33:25;7.70;99.90
60860;DHT22;46694;54.382;9.708;2023-03-14T13:36:05;7.80;99.90
60860;DHT22;46694;54.382;9.708;2023-03-14T13:38:56;7.80;99.90
60860;DHT22;46694;54.382;9.708;2023-03-14T13:41:37;7.90;99.90
60860;DHT22;46694;54.382;9.708;2023-03-14T13:44:29;8.00;99.90
60860;DHT22;46694;54.382;9.708;2023-03-14T13:47:17;7.90;99.90
60860;DHT22;46694;54.382;9.708;2023-03-14T13:49:58;8.00;99.90
60860;DHT22;46694;54.382;9.708;2023-03-14T13:52:38;8.10;99.90
60860;DHT22;46694;54.382;9.708;2023-03-14T13:59:28;8.20;99.90
60860;DHT22;46694;54.382;9.708;2023-03-14T14:02:14;8.40;99.90
60860;DHT22;46694;54.382;9.708;2023-03-14T14:04:56;8.40;99.90
60860;DHT22;46694;54.382;9.708;2023-03-14T14:07:35;8.50;99.90
60860;DHT22;46694;54.382;9.708;2023-03-14T14:10:16;8.40;99.90
60860;DHT22;46694;54.382;9.708;2023-03-14T14:13:00;8.30;99.90
60860;DHT22;46694;54.382;9.708;2023-03-14T14:15:45;8.10;99.90
60860;DHT22;46694;54.382;9.708;2023-03-14T14:18:27;8.00;99.90
60860;DHT22;46694;54.382;9.708;2023-03-14T14:21:08;7.90;99.90
60860;DHT22;46694;54.382;9.708;2023-03-14T14:23:51;7.80;99.90
60860;DHT22;46694;54.382;9.708;2023-03-14T14:26:32;7.70;99.90
60860;DHT22;46694;54.382;9.708;2023-03-14T14:29:24;7.70;99.90
60860;DHT22;46694;54.382;9.708;2023-03-14T14:32:12;7.60;99.90
60860;DHT22;46694;54.382;9.708;2023-03-14T14:34:58;7.50;99.90
60860;DHT22;46694;54.382;9.708;2023-03-14T14:37:44;7.40;99.90
60860;DHT22;46694;54.382;9.708;2023-03-14T14:40:30;7.30;99.90
60860;DHT22;46694;54.382;9.708;2023-03-14T14:43:16;7.30;99.90
60860;DHT22;46694;54.382;9.708;2023-03-14T14:45:57;7.30;99.90
60860;DHT22;46694;54.382;9.708;2023-03-14T14:48:38;7.30;99.90
60860;DHT22;46694;54.382;9.708;2023-03-14T14:51:25;7.30;99.90
60860;DHT22;46694;54.382;9.708;2023-03-14T14:54:18;7.40;99.90
60860;DHT22;46694;54.382;9.708;2023-03-14T14:57:03;7.40;99.90
60860;DHT22;46694;54.382;9.708;2023-03-14T14:59:45;7.30;99.90
60860;DHT22;46694;54.382;9.708;2023-03-14T15:02:39;7.30;99.90
60860;DHT22;46694;54.382;9.708;2023-03-14T15:05:27;7.30;99.90
60860;DHT22;46694;54.382;9.708;2023-03-14T15:08:13;7.30;99.90
60860;DHT22;46694;54.382;9.708;2023-03-14T15:10:52;7.20;99.90
60860;DHT22;46694;54.382;9.708;2023-03-14T15:13:32;7.20;99.90
60860;DHT22;46694;54.382;9.708;2023-03-14T15:16:12;7.20;99.90
60860;DHT22;46694;54.382;9.708;2023-03-14T15:18:55;7.30;99.90
60860;DHT22;46694;54.382;9.708;2023-03-14T15:21:35;7.40;99.90
60860;DHT22;46694;54.382;9.708;2023-03-14T15:24:15;7.30;99.90
60860;DHT22;46694;54.382;9.708;2023-03-14T15:26:55;7.30;99.90
60860;DHT22;46694;54.382;9.708;2023-03-14T15:29:34;7.20;99.90
60860;DHT22;46694;54.382;9.708;2023-03-14T15:32:16;7.10;99.90
60860;DHT22;46694;54.382;9.708;2023-03-14T15:34:57;7.10;99.90
60860;DHT22;46694;54.382;9.708;2023-03-14T15:37:36;7.00;99.90
60860;DHT22;46694;54.382;9.708;2023-03-14T15:40:16;6.90;99.90
60860;DHT22;46694;54.382;9.708;2023-03-14T15:42:56;6.80;99.90
60860;DHT22;46694;54.382;9.708;2023-03-14T15:45:35;6.70;99.90
60860;DHT22;46694;54.382;9.708;2023-03-14T15:48:17;6.60;99.90
60860;DHT22;46694;54.382;9.708;2023-03-14T15:50:58;6.50;99.90
60860;DHT22;46694;54.382;9.708;2023-03-14T15:53:38;6.40;99.90
60860;DHT22;46694;54.382;9.708;2023-03-14T15:56:19;6.40;99.90
60860;DHT22;46694;54.382;9.708;2023-03-14T15:58:59;6.30;99.90
60860;DHT22;46694;54.382;9.708;2023-03-14T16:01:38;6.20;99.90
60860;DHT22;46694;54.382;9.708;2023-03-14T16:04:18;6.30;99.90
60860;DHT22;46694;54.382;9.708;2023-03-14T16:06:57;6.30;99.90
60860;DHT22;46694;54.382;9.708;2023-03-14T16:09:37;6.40;99.90
60860;DHT22;46694;54.382;9.708;2023-03-14T16:12:17;6.40;99.90
60860;DHT22;46694;54.382;9.708;2023-03-14T16:14:56;6.40;99.90
60860;DHT22;46694;54.382;9.708;2023-03-14T16:17:36;6.50;99.90
60860;DHT22;46694;54.382;9.708;2023-03-14T16:20:17;6.40;99.90
60860;DHT22;46694;54.382;9.708;2023-03-14T16:22:58;6.40;99.90
60860;DHT22;46694;54.382;9.708;2023-03-14T16:25:37;6.30;99.90
60860;DHT22;46694;54.382;9.708;2023-03-14T16:28:18;6.30;99.90
60860;DHT22;46694;54.382;9.708;2023-03-14T16:31:05;6.20;99.90
60860;DHT22;46694;54.382;9.708;2023-03-14T16:33:46;6.20;99.90
60860;DHT22;46694;54.382;9.708;2023-03-14T16:36:26;6.10;99.90
60860;DHT22;46694;54.382;9.708;2023-03-14T16:39:06;6.10;99.90
60860;DHT22;46694;54.382;9.708;2023-03-14T16:41:46;6.10;99.90
60860;DHT22;46694;54.382;9.708;2023-03-14T16:44:26;6.00;99.90
60860;DHT22;46694;54.382;9.708;2023-03-14T16:47:05;6.00;99.90
60860;DHT22;46694;54.382;9.708;2023-03-14T16:49:45;6.00;99.90
60860;DHT22;46694;54.382;9.708;2023-03-14T16:52:25;5.90;99.90
60860;DHT22;46694;54.382;9.708;2023-03-14T16:55:04;5.90;99.90
60860;DHT22;46694;54.382;9.708;2023-03-14T16:57:45;5.90;99.90
60860;DHT22;46694;54.382;9.708;2023-03-14T17:00:25;5.90;99.90
60860;DHT22;46694;54.382;9.708;2023-03-14T17:03:04;5.90;99.90
60860;DHT22;46694;54.382;9.708;2023-03-14T17:05:46;5.80;99.90
60860;DHT22;46694;54.382;9.708;2023-03-14T17:08:26;5.80;99.90
60860;DHT22;46694;54.382;9.708;2023-03-14T17:11:08;5.70;99.90
60860;DHT22;46694;54.382;9.708;2023-03-14T17:13:48;5.70;99.90
60860;DHT22;46694;54.382;9.708;2023-03-14T17:16:28;5.60;99.90
60860;DHT22;46694;54.382;9.708;2023-03-14T17:19:08;5.50;99.90
60860;DHT22;46694;54.382;9.708;2023-03-14T17:21:47;5.50;99.90
60860;DHT22;46694;54.382;9.708;2023-03-14T17:24:27;5.40;99.90
60860;DHT22;46694;54.382;9.708;2023-03-14T17:27:07;5.30;99.90
60860;DHT22;46694;54.382;9.708;2023-03-14T17:29:47;5.30;99.90
60860;DHT22;46694;54.382;9.708;2023-03-14T17:32:27;5.20;99.90
60860;DHT22;46694;54.382;9.708;2023-03-14T17:35:07;5.20;99.90
60860;DHT22;46694;54.382;9.708;2023-03-14T17:37:46;5.10;99.90
60860;DHT22;46694;54.382;9.708;2023-03-14T17:40:26;5.10;99.90
60860;DHT22;46694;54.382;9.708;2023-03-14T17:43:06;5.10;99.90
60860;DHT22;46694;54.382;9.708;2023-03-14T17:45:46;5.00;99.90
60860;DHT22;46694;54.382;9.708;2023-03-14T17:48:25;5.00;99.90
60860;DHT22;46694;54.382;9.708;2023-03-14T17:51:05;4.90;99.90
60860;DHT22;46694;54.382;9.708;2023-03-14T17:53:44;4.80;99.90
60860;DHT22;46694;54.382;9.708;2023-03-14T17:56:24;4.80;99.90
60860;DHT22;46694;54.382;9.708;2023-03-14T17:59:04;4.70;99.90
60860;DHT22;46694;54.382;9.708;2023-03-14T18:01:43;4.60;99.90
60860;DHT22;46694;54.382;9.708;2023-03-14T18:04:23;4.60;99.90
60860;DHT22;46694;54.382;9.708;2023-03-14T18:07:03;4.60;99.90
60860;DHT22;46694;54.382;9.708;2023-03-14T18:09:43;4.60;99.90
60860;DHT22;46694;54.382;9.708;2023-03-14T18:12:22;4.50;99.90
60860;DHT22;46694;54.382;9.708;2023-03-14T18:15:03;4.50;99.90
60860;DHT22;46694;54.382;9.708;2023-03-14T18:17:42;4.50;99.90
60860;DHT22;46694;54.382;9.708;2023-03-14T18:20:22;4.40;99.90
60860;DHT22;46694;54.382;9.708;2023-03-14T18:23:01;4.40;99.90
60860;DHT22;46694;54.382;9.708;2023-03-14T18:25:41;4.40;99.90